sensor_id;sensor_type;location;lat;lon;timestamp;pressure;altitude;pressure_sealevel;temperature;humidity
20009;BME280;10165;42.662;23.260;2023-05-21T00:01:03;93996.03;;;16.72;71.83
20009;BME280;10165;42.662;23.260;2023-05-21T00:03:33;94011.34;;;16.37;71.45
20009;BME280;10165;42.662;23.260;2023-05-21T00:06:01;94004.69;;;15.85;73.08
20009;BME280;10165;42.662;23.260;2023-05-21T00:08:29;94000.56;;;16.33;72.84
20009;BME280;10165;42.662;23.260;2023-05-21T00:10:56;94000.19;;;16.20;73.56
20009;BME280;10165;42.662;23.260;2023-05-21T00:13:23;93989.84;;;16.44;73.32
20009;BME280;10165;42.662;23.260;2023-05-21T00:15:50;93997.53;;;16.52;72.49
20009;BME280;10165;42.662;23.260;2023-05-21T00:18:17;93995.25;;;16.68;71.16
20009;BME280;10165;42.662;23.260;2023-05-21T00:20:43;93989.44;;;16.52;71.37
20009;BME280;10165;42.662;23.260;2023-05-21T00:23:11;93987.16;;;16.83;70.95
20009;BME280;10165;42.662;23.260;2023-05-21T00:25:37;93983.31;;;16.98;69.41
20009;BME280;10165;42.662;23.260;2023-05-21T00:28:04;93983.63;;;17.21;68.90
20009;BME280;10165;42.662;23.260;2023-05-21T00:30:31;93981.38;;;16.91;68.50
20009;BME280;10165;42.662;23.260;2023-05-21T00:32:58;93985.25;;;16.72;69.30
20009;BME280;10165;42.662;23.260;2023-05-21T00:35:28;93982.47;;;16.26;69.82
20009;BME280;10165;42.662;23.260;2023-05-21T00:37:54;93985.81;;;15.77;72.63
20009;BME280;10165;42.662;23.260;2023-05-21T00:40:21;93992.66;;;15.57;72.77
20009;BME280;10165;42.662;23.260;2023-05-21T00:42:48;93984.72;;;16.00;72.56
20009;BME280;10165;42.662;23.260;2023-05-21T00:45:15;93983.13;;;15.81;72.37
20009;BME280;10165;42.662;23.260;2023-05-21T00:47:42;93975.94;;;16.27;71.54
20009;BME280;10165;42.662;23.260;2023-05-21T00:50:10;93969.00;;;16.37;70.92
20009;BME280;10165;42.662;23.260;2023-05-21T00:52:37;93968.63;;;16.53;70.08
20009;BME280;10165;42.662;23.260;2023-05-21T00:55:08;93967.91;;;16.81;69.07
20009;BME280;10165;42.662;23.260;2023-05-21T00:57:35;93965.59;;;16.90;68.63
20009;BME280;10165;42.662;23.260;2023-05-21T01:00:04;93964.81;;;16.93;67.64
20009;BME280;10165;42.662;23.260;2023-05-21T01:02:36;93965.22;;;16.70;67.82
20009;BME280;10165;42.662;23.260;2023-05-21T01:05:04;93960.56;;;16.88;67.13
20009;BME280;10165;42.662;23.260;2023-05-21T01:07:37;93968.28;;;16.83;67.37
20009;BME280;10165;42.662;23.260;2023-05-21T01:10:06;93962.47;;;17.02;66.81
20009;BME280;10165;42.662;23.260;2023-05-21T01:12:34;93964.41;;;17.01;66.92
20009;BME280;10165;42.662;23.260;2023-05-21T01:15:02;93959.03;;;16.62;67.70
20009;BME280;10165;42.662;23.260;2023-05-21T01:17:29;93955.16;;;16.46;69.19
20009;BME280;10165;42.662;23.260;2023-05-21T01:19:57;93960.94;;;16.51;68.94
20009;BME280;10165;42.662;23.260;2023-05-21T01:22:24;93951.69;;;16.49;68.59
20009;BME280;10165;42.662;23.260;2023-05-21T01:24:53;93953.97;;;16.25;69.32
20009;BME280;10165;42.662;23.260;2023-05-21T01:27:21;93952.47;;;16.49;68.84
20009;BME280;10165;42.662;23.260;2023-05-21T01:29:48;93952.09;;;16.47;68.94
20009;BME280;10165;42.662;23.260;2023-05-21T01:32:34;93957.06;;;16.35;68.60
20009;BME280;10165;42.662;23.260;2023-05-21T01:35:09;93947.44;;;16.19;69.09
20009;BME280;10165;42.662;23.260;2023-05-21T01:40:45;93953.50;;;15.81;70.21
20009;BME280;10165;42.662;23.260;2023-05-21T01:43:13;93950.16;;;16.44;68.69
20009;BME280;10165;42.662;23.260;2023-05-21T01:45:41;93952.84;;;16.41;68.76
20009;BME280;10165;42.662;23.260;2023-05-21T01:48:10;93946.28;;;16.35;69.16
20009;BME280;10165;42.662;23.260;2023-05-21T01:50:39;93942.03;;;16.30;69.11
20009;BME280;10165;42.662;23.260;2023-05-21T01:53:07;93943.22;;;16.50;68.33
20009;BME280;10165;42.662;23.260;2023-05-21T01:55:33;93956.34;;;16.62;67.79
20009;BME280;10165;42.662;23.260;2023-05-21T01:58:01;93949.03;;;16.73;67.58
20009;BME280;10165;42.662;23.260;2023-05-21T02:00:28;93946.72;;;16.58;67.61
20009;BME280;10165;42.662;23.260;2023-05-21T02:02:56;93944.38;;;16.92;66.81
20009;BME280;10165;42.662;23.260;2023-05-21T02:05:24;93935.16;;;16.82;67.04
20009;BME280;10165;42.662;23.260;2023-05-21T02:07:51;93931.66;;;16.96;66.31
20009;BME280;10165;42.662;23.260;2023-05-21T02:10:18;93925.09;;;17.00;66.29
20009;BME280;10165;42.662;23.260;2023-05-21T02:12:45;93934.75;;;16.77;66.38
20009;BME280;10165;42.662;23.260;2023-05-21T02:15:12;93937.47;;;16.73;67.06
20009;BME280;10165;42.662;23.260;2023-05-21T02:17:44;93934.75;;;16.52;67.50
20009;BME280;10165;42.662;23.260;2023-05-21T02:20:12;93933.22;;;16.68;67.00
20009;BME280;10165;42.662;23.260;2023-05-21T02:22:44;93929.72;;;16.18;67.47
20009;BME280;10165;42.662;23.260;2023-05-21T02:25:13;93941.19;;;15.84;68.62
20009;BME280;10165;42.662;23.260;2023-05-21T02:27:41;93936.19;;;15.78;69.56
20009;BME280;10165;42.662;23.260;2023-05-21T02:30:10;93925.88;;;16.23;67.93
20009;BME280;10165;42.662;23.260;2023-05-21T02:32:37;93935.50;;;16.52;67.16
20009;BME280;10165;42.662;23.260;2023-05-21T02:35:09;93931.66;;;16.46;67.19
20009;BME280;10165;42.662;23.260;2023-05-21T02:37:36;93934.22;;;15.61;69.16
20009;BME280;10165;42.662;23.260;2023-05-21T02:40:06;93931.16;;;15.66;69.29
20009;BME280;10165;42.662;23.260;2023-05-21T02:42:33;93929.94;;;15.53;69.68
20009;BME280;10165;42.662;23.260;2023-05-21T02:45:02;93935.88;;;15.08;70.32
20009;BME280;10165;42.662;23.260;2023-05-21T02:47:29;93937.00;;;15.03;70.96
20009;BME280;10165;42.662;23.260;2023-05-21T02:49:58;93932.25;;;15.51;70.09
20009;BME280;10165;42.662;23.260;2023-05-21T02:52:25;93924.22;;;15.69;69.14
20009;BME280;10165;42.662;23.260;2023-05-21T02:54:52;93932.72;;;15.71;69.39
20009;BME280;10165;42.662;23.260;2023-05-21T02:57:19;93919.47;;;15.41;69.92
20009;BME280;10165;42.662;23.260;2023-05-21T02:59:45;93923.81;;;14.88;72.21
20009;BME280;10165;42.662;23.260;2023-05-21T03:02:12;93920.00;;;14.89;71.60
20009;BME280;10165;42.662;23.260;2023-05-21T03:04:39;93927.06;;;15.18;71.65
20009;BME280;10165;42.662;23.260;2023-05-21T03:07:12;93920.72;;;15.54;70.61
20009;BME280;10165;42.662;23.260;2023-05-21T03:09:40;93922.31;;;15.73;69.44
20009;BME280;10165;42.662;23.260;2023-05-21T03:12:09;93928.84;;;15.75;69.36
20009;BME280;10165;42.662;23.260;2023-05-21T03:14:36;93936.22;;;15.89;68.86
20009;BME280;10165;42.662;23.260;2023-05-21T03:17:03;93937.69;;;15.72;68.78
20009;BME280;10165;42.662;23.260;2023-05-21T03:19:32;93935.78;;;15.80;68.92
20009;BME280;10165;42.662;23.260;2023-05-21T03:22:02;93937.31;;;15.70;68.82
20009;BME280;10165;42.662;23.260;2023-05-21T03:24:30;93930.47;;;16.05;67.80
20009;BME280;10165;42.662;23.260;2023-05-21T03:26:59;93931.59;;;15.86;68.42
20009;BME280;10165;42.662;23.260;2023-05-21T03:29:28;93944.19;;;15.61;69.34
20009;BME280;10165;42.662;23.260;2023-05-21T03:31:55;93943.44;;;15.64;70.25
20009;BME280;10165;42.662;23.260;2023-05-21T03:34:23;93938.84;;;15.68;70.61
20009;BME280;10165;42.662;23.260;2023-05-21T03:36:50;93948.72;;;15.46;71.56
20009;BME280;10165;42.662;23.260;2023-05-21T03:39:16;93944.16;;;15.50;72.51
20009;BME280;10165;42.662;23.260;2023-05-21T03:41:43;93945.00;;;15.68;72.54
20009;BME280;10165;42.662;23.260;2023-05-21T03:44:10;93944.63;;;15.73;72.30
20009;BME280;10165;42.662;23.260;2023-05-21T03:46:37;93939.22;;;15.63;72.76
20009;BME280;10165;42.662;23.260;2023-05-21T03:49:04;93943.81;;;15.59;73.86
20009;BME280;10165;42.662;23.260;2023-05-21T03:51:31;93929.72;;;16.08;72.06
20009;BME280;10165;42.662;23.260;2023-05-21T03:53:58;93936.25;;;16.14;71.38
20009;BME280;10165;42.662;23.260;2023-05-21T03:56:25;93929.34;;;16.20;71.72
20009;BME280;10165;42.662;23.260;2023-05-21T03:58:52;93939.72;;;16.18;71.39
20009;BME280;10165;42.662;23.260;2023-05-21T04:01:19;93926.22;;;15.93;73.36
20009;BME280;10165;42.662;23.260;2023-05-21T04:03:45;93938.84;;;15.71;74.31
20009;BME280;10165;42.662;23.260;2023-05-21T04:06:13;93932.38;;;15.87;73.31
20009;BME280;10165;42.662;23.260;2023-05-21T04:08:40;93932.81;;;16.13;72.96
20009;BME280;10165;42.662;23.260;2023-05-21T04:11:08;93940.91;;;16.42;71.41
20009;BME280;10165;42.662;23.260;2023-05-21T04:13:34;93935.88;;;16.30;71.52
20009;BME280;10165;42.662;23.260;2023-05-21T04:16:01;93932.06;;;16.52;71.53
20009;BME280;10165;42.662;23.260;2023-05-21T04:18:28;93933.22;;;16.40;71.92
20009;BME280;10165;42.662;23.260;2023-05-21T04:20:55;93938.94;;;16.00;73.37
20009;BME280;10165;42.662;23.260;2023-05-21T04:23:22;93928.19;;;16.46;72.40
20009;BME280;10165;42.662;23.260;2023-05-21T04:25:49;93927.81;;;16.47;71.82
20009;BME280;10165;42.662;23.260;2023-05-21T04:28:16;93932.38;;;15.97;73.05
20009;BME280;10165;42.662;23.260;2023-05-21T04:30:46;93938.06;;;15.64;74.75
20009;BME280;10165;42.662;23.260;2023-05-21T04:33:13;93932.75;;;15.96;74.11
20009;BME280;10165;42.662;23.260;2023-05-21T04:35:45;93928.16;;;16.00;73.54
20009;BME280;10165;42.662;23.260;2023-05-21T04:38:16;93922.00;;;15.99;74.17
20009;BME280;10165;42.662;23.260;2023-05-21T04:40:47;93941.19;;;15.80;72.64
20009;BME280;10165;42.662;23.260;2023-05-21T04:43:16;93924.66;;;15.89;73.92
20009;BME280;10165;42.662;23.260;2023-05-21T04:45:43;93923.19;;;16.34;72.54
20009;BME280;10165;42.662;23.260;2023-05-21T04:48:11;93936.69;;;16.51;72.29
20009;BME280;10165;42.662;23.260;2023-05-21T04:50:38;93929.34;;;16.41;72.26
20009;BME280;10165;42.662;23.260;2023-05-21T04:53:07;93931.28;;;16.51;71.93
20009;BME280;10165;42.662;23.260;2023-05-21T04:55:34;93924.34;;;16.50;71.51
20009;BME280;10165;42.662;23.260;2023-05-21T04:58:05;93928.22;;;16.67;71.53
20009;BME280;10165;42.662;23.260;2023-05-21T05:00:39;93920.84;;;16.96;70.61
20009;BME280;10165;42.662;23.260;2023-05-21T05:03:07;93921.66;;;16.33;72.39
20009;BME280;10165;42.662;23.260;2023-05-21T05:05:34;93917.78;;;16.16;73.13
20009;BME280;10165;42.662;23.260;2023-05-21T05:08:01;93933.59;;;16.60;71.83
20009;BME280;10165;42.662;23.260;2023-05-21T05:10:29;93913.91;;;16.95;70.19
20009;BME280;10165;42.662;23.260;2023-05-21T05:12:56;93927.44;;;16.27;72.91
20009;BME280;10165;42.662;23.260;2023-05-21T05:15:22;93917.00;;;16.05;73.17
20009;BME280;10165;42.662;23.260;2023-05-21T05:17:49;93911.22;;;16.56;71.87
20009;BME280;10165;42.662;23.260;2023-05-21T05:20:16;93930.09;;;16.52;72.33
20009;BME280;10165;42.662;23.260;2023-05-21T05:22:43;93928.97;;;16.60;71.67
20009;BME280;10165;42.662;23.260;2023-05-21T05:25:09;93931.28;;;16.80;71.41
20009;BME280;10165;42.662;23.260;2023-05-21T05:27:36;93922.44;;;16.72;72.36
20009;BME280;10165;42.662;23.260;2023-05-21T05:30:04;93928.22;;;16.56;72.79
20009;BME280;10165;42.662;23.260;2023-05-21T05:32:31;93917.38;;;16.95;71.07
20009;BME280;10165;42.662;23.260;2023-05-21T05:34:58;93916.53;;;17.27;69.60
20009;BME280;10165;42.662;23.260;2023-05-21T05:37:27;93923.47;;;17.35;69.29
20009;BME280;10165;42.662;23.260;2023-05-21T05:39:54;93922.97;;;17.64;67.73
20009;BME280;10165;42.662;23.260;2023-05-21T05:42:23;93918.84;;;17.32;68.97
20009;BME280;10165;42.662;23.260;2023-05-21T05:44:50;93920.34;;;17.40;69.38
20009;BME280;10165;42.662;23.260;2023-05-21T05:47:16;93920.47;;;16.97;70.95
20009;BME280;10165;42.662;23.260;2023-05-21T05:49:43;93920.81;;;17.20;70.54
20009;BME280;10165;42.662;23.260;2023-05-21T05:52:11;93917.34;;;17.16;69.52
20009;BME280;10165;42.662;23.260;2023-05-21T05:54:37;93918.91;;;17.00;70.61
20009;BME280;10165;42.662;23.260;2023-05-21T05:57:04;93917.56;;;17.64;68.00
20009;BME280;10165;42.662;23.260;2023-05-21T05:59:31;93918.50;;;17.15;69.00
20009;BME280;10165;42.662;23.260;2023-05-21T06:01:59;93914.16;;;17.46;68.40
20009;BME280;10165;42.662;23.260;2023-05-21T06:04:27;93918.63;;;17.88;66.88
20009;BME280;10165;42.662;23.260;2023-05-21T06:06:56;93914.16;;;17.43;67.53
20009;BME280;10165;42.662;23.260;2023-05-21T06:09:26;93920.75;;;17.38;67.96
20009;BME280;10165;42.662;23.260;2023-05-21T06:11:52;93912.72;;;17.20;68.02
20009;BME280;10165;42.662;23.260;2023-05-21T06:14:19;93908.34;;;17.51;67.32
20009;BME280;10165;42.662;23.260;2023-05-21T06:16:46;93905.56;;;17.73;68.35
20009;BME280;10165;42.662;23.260;2023-05-21T06:19:13;93912.31;;;17.22;68.31
20009;BME280;10165;42.662;23.260;2023-05-21T06:21:40;93900.69;;;17.43;66.46
20009;BME280;10165;42.662;23.260;2023-05-21T06:24:06;93901.59;;;17.95;66.07
20009;BME280;10165;42.662;23.260;2023-05-21T06:26:33;93901.59;;;17.95;65.65
20009;BME280;10165;42.662;23.260;2023-05-21T06:29:00;93896.56;;;18.52;63.05
20009;BME280;10165;42.662;23.260;2023-05-21T06:31:26;93892.88;;;18.25;62.86
20009;BME280;10165;42.662;23.260;2023-05-21T06:33:54;93901.78;;;18.77;60.56
20009;BME280;10165;42.662;23.260;2023-05-21T06:36:21;93896.78;;;19.50;56.65
20009;BME280;10165;42.662;23.260;2023-05-21T06:38:47;93900.38;;;19.36;54.59
20009;BME280;10165;42.662;23.260;2023-05-21T06:41:14;93903.94;;;18.92;54.46
20009;BME280;10165;42.662;23.260;2023-05-21T06:43:41;93898.00;;;19.08;53.98
20009;BME280;10165;42.662;23.260;2023-05-21T06:46:07;93891.91;;;19.34;52.35
20009;BME280;10165;42.662;23.260;2023-05-21T06:48:34;93893.81;;;19.68;51.83
20009;BME280;10165;42.662;23.260;2023-05-21T06:51:01;93892.06;;;19.20;52.55
20009;BME280;10165;42.662;23.260;2023-05-21T06:53:28;93891.50;;;19.32;52.41
20009;BME280;10165;42.662;23.260;2023-05-21T06:55:54;93889.22;;;18.97;52.79
20009;BME280;10165;42.662;23.260;2023-05-21T06:58:21;93897.34;;;18.52;54.84
20009;BME280;10165;42.662;23.260;2023-05-21T07:00:48;93895.78;;;18.96;54.60
20009;BME280;10165;42.662;23.260;2023-05-21T07:03:15;93904.06;;;18.78;55.91
20009;BME280;10165;42.662;23.260;2023-05-21T07:05:42;93895.75;;;19.33;55.29
20009;BME280;10165;42.662;23.260;2023-05-21T07:08:09;93888.38;;;19.37;54.86
20009;BME280;10165;42.662;23.260;2023-05-21T07:10:37;93884.53;;;19.01;54.74
20009;BME280;10165;42.662;23.260;2023-05-21T07:13:04;93881.84;;;18.97;57.50
20009;BME280;10165;42.662;23.260;2023-05-21T07:15:31;93879.00;;;19.76;54.69
20009;BME280;10165;42.662;23.260;2023-05-21T07:17:58;93883.66;;;19.75;54.55
20009;BME280;10165;42.662;23.260;2023-05-21T07:20:24;93875.25;;;20.23;52.33
20009;BME280;10165;42.662;23.260;2023-05-21T07:22:51;93878.66;;;20.54;50.74
20009;BME280;10165;42.662;23.260;2023-05-21T07:25:18;93892.00;;;18.86;52.62
20009;BME280;10165;42.662;23.260;2023-05-21T07:27:45;93894.91;;;19.06;53.28
20009;BME280;10165;42.662;23.260;2023-05-21T07:30:13;93894.22;;;19.32;52.67
20009;BME280;10165;42.662;23.260;2023-05-21T07:32:40;93890.38;;;19.94;52.97
20009;BME280;10165;42.662;23.260;2023-05-21T07:35:07;93884.63;;;20.69;52.46
20009;BME280;10165;42.662;23.260;2023-05-21T07:37:33;93886.81;;;21.20;48.19
20009;BME280;10165;42.662;23.260;2023-05-21T07:40:00;93892.97;;;21.01;46.96
20009;BME280;10165;42.662;23.260;2023-05-21T07:42:27;93887.66;;;21.17;47.14
20009;BME280;10165;42.662;23.260;2023-05-21T07:44:54;93887.53;;;21.24;46.75
20009;BME280;10165;42.662;23.260;2023-05-21T07:47:20;93878.63;;;21.00;46.91
20009;BME280;10165;42.662;23.260;2023-05-21T07:49:48;93878.13;;;21.06;46.93
20009;BME280;10165;42.662;23.260;2023-05-21T07:52:15;93874.22;;;20.40;47.84
20009;BME280;10165;42.662;23.260;2023-05-21T07:54:42;93891.47;;;20.54;47.79
20009;BME280;10165;42.662;23.260;2023-05-21T07:57:09;93880.03;;;20.66;47.01
20009;BME280;10165;42.662;23.260;2023-05-21T07:59:35;93874.16;;;21.14;46.18
20009;BME280;10165;42.662;23.260;2023-05-21T08:02:02;93882.50;;;20.57;46.70
20009;BME280;10165;42.662;23.260;2023-05-21T08:04:29;93883.31;;;20.54;45.84
20009;BME280;10165;42.662;23.260;2023-05-21T08:06:56;93891.41;;;20.80;45.20
20009;BME280;10165;42.662;23.260;2023-05-21T08:09:23;93883.41;;;20.93;45.25
20009;BME280;10165;42.662;23.260;2023-05-21T08:11:49;93884.59;;;21.15;44.66
20009;BME280;10165;42.662;23.260;2023-05-21T08:14:16;93883.09;;;21.54;45.98
20009;BME280;10165;42.662;23.260;2023-05-21T08:16:43;93878.44;;;21.70;43.82
20009;BME280;10165;42.662;23.260;2023-05-21T08:19:10;93883.56;;;21.68;43.91
20009;BME280;10165;42.662;23.260;2023-05-21T08:21:37;93878.28;;;21.77;42.35
20009;BME280;10165;42.662;23.260;2023-05-21T08:24:05;93882.47;;;21.82;42.16
20009;BME280;10165;42.662;23.260;2023-05-21T08:26:32;93889.22;;;21.58;40.56
20009;BME280;10165;42.662;23.260;2023-05-21T08:29:01;93892.06;;;21.11;40.08
20009;BME280;10165;42.662;23.260;2023-05-21T08:31:28;93886.88;;;21.17;40.96
20009;BME280;10165;42.662;23.260;2023-05-21T08:33:56;93886.22;;;21.52;40.50
20009;BME280;10165;42.662;23.260;2023-05-21T08:36:23;93885.88;;;21.30;39.33
20009;BME280;10165;42.662;23.260;2023-05-21T08:38:51;93896.28;;;21.12;39.37
20009;BME280;10165;42.662;23.260;2023-05-21T08:41:19;93885.06;;;20.87;39.37
20009;BME280;10165;42.662;23.260;2023-05-21T08:43:54;93892.63;;;20.99;37.99
20009;BME280;10165;42.662;23.260;2023-05-21T08:46:22;93893.03;;;20.97;37.76
20009;BME280;10165;42.662;23.260;2023-05-21T08:48:50;93894.91;;;21.83;37.14
20009;BME280;10165;42.662;23.260;2023-05-21T08:51:20;93888.47;;;21.93;37.37
20009;BME280;10165;42.662;23.260;2023-05-21T08:53:50;93899.00;;;22.11;37.34
20009;BME280;10165;42.662;23.260;2023-05-21T08:56:16;93883.16;;;21.07;38.23
20009;BME280;10165;42.662;23.260;2023-05-21T08:58:47;93890.41;;;21.57;38.46
20009;BME280;10165;42.662;23.260;2023-05-21T09:01:14;93886.22;;;21.52;38.56
20009;BME280;10165;42.662;23.260;2023-05-21T09:03:45;93878.88;;;22.40;39.09
20009;BME280;10165;42.662;23.260;2023-05-21T09:06:12;93884.81;;;22.35;38.56
20009;BME280;10165;42.662;23.260;2023-05-21T09:08:43;93885.78;;;21.34;38.90
20009;BME280;10165;42.662;23.260;2023-05-21T09:11:11;93880.16;;;22.00;39.34
20009;BME280;10165;42.662;23.260;2023-05-21T09:13:39;93885.81;;;21.54;39.49
20009;BME280;10165;42.662;23.260;2023-05-21T09:16:08;93884.66;;;21.12;40.70
20009;BME280;10165;42.662;23.260;2023-05-21T09:18:35;93891.56;;;21.75;41.32
20009;BME280;10165;42.662;23.260;2023-05-21T09:21:28;93897.63;;;21.83;40.54
20009;BME280;10165;42.662;23.260;2023-05-21T09:23:56;93888.06;;;21.95;41.65
20009;BME280;10165;42.662;23.260;2023-05-21T09:26:23;93893.03;;;21.60;41.87
20009;BME280;10165;42.662;23.260;2023-05-21T09:28:56;93895.66;;;21.24;41.24
20009;BME280;10165;42.662;23.260;2023-05-21T09:31:23;93888.97;;;21.88;41.57
20009;BME280;10165;42.662;23.260;2023-05-21T09:33:51;93894.06;;;22.22;39.95
20009;BME280;10165;42.662;23.260;2023-05-21T09:36:18;93884.19;;;21.36;39.74
20009;BME280;10165;42.662;23.260;2023-05-21T09:38:49;93877.34;;;21.28;39.66
20009;BME280;10165;42.662;23.260;2023-05-21T09:41:18;93868.09;;;21.45;37.65
20009;BME280;10165;42.662;23.260;2023-05-21T09:43:47;93876.72;;;21.40;36.88
20009;BME280;10165;42.662;23.260;2023-05-21T09:46:14;93887.69;;;20.71;36.78
20009;BME280;10165;42.662;23.260;2023-05-21T09:48:42;93879.50;;;21.17;35.80
20009;BME280;10165;42.662;23.260;2023-05-21T09:51:13;93875.03;;;21.46;34.61
20009;BME280;10165;42.662;23.260;2023-05-21T09:53:51;93874.47;;;21.95;34.60
20009;BME280;10165;42.662;23.260;2023-05-21T09:56:23;93876.38;;;22.14;34.00
20009;BME280;10165;42.662;23.260;2023-05-21T09:58:54;93874.56;;;21.91;34.21
20009;BME280;10165;42.662;23.260;2023-05-21T10:01:25;93876.63;;;22.03;34.46
20009;BME280;10165;42.662;23.260;2023-05-21T10:03:57;93870.75;;;22.05;33.87
20009;BME280;10165;42.662;23.260;2023-05-21T10:06:29;93877.22;;;21.16;34.44
20009;BME280;10165;42.662;23.260;2023-05-21T10:09:08;93872.84;;;21.77;34.09
20009;BME280;10165;42.662;23.260;2023-05-21T10:11:36;93866.16;;;21.26;35.41
20009;BME280;10165;42.662;23.260;2023-05-21T10:16:32;93874.22;;;21.50;34.75
20009;BME280;10165;42.662;23.260;2023-05-21T10:18:59;93869.81;;;21.56;34.94
20009;BME280;10165;42.662;23.260;2023-05-21T10:21:26;93868.72;;;21.33;35.09
20009;BME280;10165;42.662;23.260;2023-05-21T10:23:54;93871.84;;;21.52;33.76
20009;BME280;10165;42.662;23.260;2023-05-21T10:26:23;93857.19;;;22.37;34.28
20009;BME280;10165;42.662;23.260;2023-05-21T10:28:50;93863.03;;;22.35;34.04
20009;BME280;10165;42.662;23.260;2023-05-21T10:31:18;93851.34;;;21.67;34.68
20009;BME280;10165;42.662;23.260;2023-05-21T10:33:45;93862.97;;;22.23;34.26
20009;BME280;10165;42.662;23.260;2023-05-21T10:36:15;93855.63;;;22.20;34.93
20009;BME280;10165;42.662;23.260;2023-05-21T10:38:42;93850.16;;;23.29;34.88
20009;BME280;10165;42.662;23.260;2023-05-21T10:41:11;93850.41;;;23.64;34.64
20009;BME280;10165;42.662;23.260;2023-05-21T11:00:23;93863.22;;;22.77;35.36
20009;BME280;10165;42.662;23.260;2023-05-21T11:02:51;93856.25;;;23.21;33.57
20009;BME280;10165;42.662;23.260;2023-05-21T11:05:54;93852.66;;;23.24;35.85
20009;BME280;10165;42.662;23.260;2023-05-21T11:08:29;93852.75;;;23.20;37.07
20009;BME280;10165;42.662;23.260;2023-05-21T11:11:02;93850.69;;;22.31;35.72
20009;BME280;10165;42.662;23.260;2023-05-21T11:13:44;93855.16;;;22.57;36.67
20009;BME280;10165;42.662;23.260;2023-05-21T11:16:15;93853.50;;;22.92;35.98
20009;BME280;10165;42.662;23.260;2023-05-21T11:21:16;93852.66;;;22.63;37.39
20009;BME280;10165;42.662;23.260;2023-05-21T11:28:43;93843.28;;;21.99;36.20
20009;BME280;10165;42.662;23.260;2023-05-21T11:31:23;93838.63;;;22.32;35.88
20009;BME280;10165;42.662;23.260;2023-05-21T11:34:14;93834.09;;;22.58;35.94
20009;BME280;10165;42.662;23.260;2023-05-21T11:36:46;93833.19;;;22.64;34.79
20009;BME280;10165;42.662;23.260;2023-05-21T11:42:01;93828.19;;;22.30;36.00
20009;BME280;10165;42.662;23.260;2023-05-21T11:44:43;93831.66;;;22.31;36.18
20009;BME280;10165;42.662;23.260;2023-05-21T11:47:12;93827.50;;;22.75;35.89
20009;BME280;10165;42.662;23.260;2023-05-21T11:49:40;93819.06;;;22.69;35.77
20009;BME280;10165;42.662;23.260;2023-05-21T11:52:09;93821.72;;;22.73;35.43
20009;BME280;10165;42.662;23.260;2023-05-21T11:54:41;93825.53;;;21.95;35.93
20009;BME280;10165;42.662;23.260;2023-05-21T11:57:09;93819.50;;;22.52;35.52
20009;BME280;10165;42.662;23.260;2023-05-21T11:59:36;93815.22;;;22.67;35.62
20009;BME280;10165;42.662;23.260;2023-05-21T12:02:03;93824.44;;;22.73;35.21
20009;BME280;10165;42.662;23.260;2023-05-21T12:04:34;93821.28;;;22.10;35.90
20009;BME280;10165;42.662;23.260;2023-05-21T12:07:05;93826.19;;;21.63;37.16
20009;BME280;10165;42.662;23.260;2023-05-21T12:09:41;93810.06;;;22.08;37.09
20009;BME280;10165;42.662;23.260;2023-05-21T12:12:09;93815.25;;;22.02;36.51
20009;BME280;10165;42.662;23.260;2023-05-21T12:14:36;93815.09;;;22.25;37.00
20009;BME280;10165;42.662;23.260;2023-05-21T12:17:04;93808.97;;;22.21;37.35
20009;BME280;10165;42.662;23.260;2023-05-21T12:19:32;93807.78;;;22.22;37.37
20009;BME280;10165;42.662;23.260;2023-05-21T12:22:03;93816.81;;;21.83;38.94
20009;BME280;10165;42.662;23.260;2023-05-21T12:24:31;93814.91;;;22.16;37.61
20009;BME280;10165;42.662;23.260;2023-05-21T12:27:00;93815.22;;;21.30;39.23
20009;BME280;10165;42.662;23.260;2023-05-21T12:29:29;93819.44;;;20.92;39.77
20009;BME280;10165;42.662;23.260;2023-05-21T12:32:01;93812.28;;;21.21;39.60
20009;BME280;10165;42.662;23.260;2023-05-21T12:34:42;93809.84;;;21.07;39.93
20009;BME280;10165;42.662;23.260;2023-05-21T12:37:14;93813.66;;;21.10;40.51
20009;BME280;10165;42.662;23.260;2023-05-21T12:39:46;93793.19;;;21.05;40.88
20009;BME280;10165;42.662;23.260;2023-05-21T12:42:13;93794.13;;;21.38;40.76
20009;BME280;10165;42.662;23.260;2023-05-21T12:44:44;93801.63;;;21.50;40.56
20009;BME280;10165;42.662;23.260;2023-05-21T12:47:12;93799.78;;;21.63;41.17
20009;BME280;10165;42.662;23.260;2023-05-21T12:49:40;93795.72;;;22.07;40.21
20009;BME280;10165;42.662;23.260;2023-05-21T12:52:11;93798.84;;;22.06;40.22
20009;BME280;10165;42.662;23.260;2023-05-21T12:54:39;93791.84;;;22.05;40.02
20009;BME280;10165;42.662;23.260;2023-05-21T12:57:18;93788.97;;;22.28;38.89
20009;BME280;10165;42.662;23.260;2023-05-21T12:59:51;93795.53;;;22.14;38.63
20009;BME280;10165;42.662;23.260;2023-05-21T13:02:23;93799.00;;;21.99;39.30
20009;BME280;10165;42.662;23.260;2023-05-21T13:07:23;93795.44;;;22.34;40.01
20009;BME280;10165;42.662;23.260;2023-05-21T13:09:50;93796.53;;;22.36;39.39
20009;BME280;10165;42.662;23.260;2023-05-21T13:12:29;93791.41;;;21.90;39.83
20009;BME280;10165;42.662;23.260;2023-05-21T13:14:57;93793.75;;;22.08;40.95
20009;BME280;10165;42.662;23.260;2023-05-21T13:17:25;93791.47;;;22.22;41.51
20009;BME280;10165;42.662;23.260;2023-05-21T13:22:40;93792.28;;;22.52;39.58
20009;BME280;10165;42.662;23.260;2023-05-21T13:25:21;93790.91;;;22.44;40.65
20009;BME280;10165;42.662;23.260;2023-05-21T13:27:51;93784.59;;;22.63;39.77
20009;BME280;10165;42.662;23.260;2023-05-21T13:30:18;93784.53;;;22.50;39.77
20009;BME280;10165;42.662;23.260;2023-05-21T13:32:46;93776.16;;;22.73;39.17
20009;BME280;10165;42.662;23.260;2023-05-21T13:35:13;93782.44;;;22.42;39.33